createdAt,value
2022-11-03T00:00:57.319Z,9.279809
2022-11-03T00:01:57.372Z,9.279900
2022-11-03T00:02:57.392Z,9.279845
2022-11-03T00:03:57.295Z,9.279885
2022-11-03T00:04:57.252Z,9.279978
2022-11-03T00:05:57.232Z,9.279936
2022-11-03T00:06:57.216Z,9.279808
2022-11-03T00:07:57.199Z,9.279637
2022-11-03T00:08:57.209Z,9.279672
2022-11-03T00:09:57.165Z,9.279800
2022-11-03T00:10:57.148Z,9.279939
2022-11-03T00:11:57.133Z,9.280091
2022-11-03T00:12:57.122Z,9.280110
2022-11-03T00:13:57.125Z,9.279926
2022-11-03T00:14:57.081Z,9.279546
2022-11-03T00:15:57.070Z,9.279139
2022-11-03T00:16:57.044Z,9.279543
2022-11-03T00:17:57.035Z,9.279882
2022-11-03T00:18:57.036Z,9.280091
2022-11-03T00:19:57.050Z,9.280094
2022-11-03T00:20:56.979Z,9.280105
2022-11-03T00:21:56.975Z,9.279987
2022-11-03T00:22:56.944Z,9.280055
2022-11-03T00:23:56.956Z,9.280043
2022-11-03T00:24:56.908Z,9.280047
2022-11-03T00:25:56.900Z,9.280105
2022-11-03T00:26:56.884Z,9.280120
2022-11-03T00:27:56.903Z,9.280090
2022-11-03T00:28:56.871Z,9.279943
2022-11-03T00:29:56.834Z,9.280062
2022-11-03T00:30:56.807Z,9.280023
2022-11-03T00:31:56.841Z,9.280020
2022-11-03T00:32:56.778Z,9.279989
2022-11-03T00:33:56.786Z,9.280038
2022-11-03T00:34:56.746Z,9.279919
2022-11-03T00:35:56.727Z,9.279913
2022-11-03T00:36:56.705Z,9.279878
2022-11-03T00:37:56.696Z,9.279933
2022-11-03T00:38:56.709Z,9.280054
2022-11-03T00:39:56.668Z,9.279966
2022-11-03T00:40:56.704Z,9.280028
2022-11-03T00:41:56.648Z,9.279947
2022-11-03T00:42:56.606Z,9.280008
2022-11-03T00:43:56.624Z,9.279999
2022-11-03T00:44:56.581Z,9.279924
2022-11-03T00:45:56.578Z,9.280048
2022-11-03T00:46:56.536Z,9.280088
2022-11-03T00:47:56.535Z,9.280085
2022-11-03T00:48:56.535Z,9.280240
2022-11-03T00:49:56.496Z,9.280068
2022-11-03T00:50:56.541Z,9.280071
2022-11-03T00:51:56.455Z,9.280133
2022-11-03T00:52:56.434Z,9.280024
2022-11-03T00:53:56.459Z,9.279984
2022-11-03T00:54:56.400Z,9.279992
2022-11-03T00:55:56.388Z,9.280084
2022-11-03T00:56:56.387Z,9.280034
2022-11-03T00:57:56.359Z,9.280003
2022-11-03T00:58:56.354Z,9.280033
2022-11-03T00:59:56.313Z,9.280014
2022-11-03T01:00:56.332Z,9.280068
2022-11-03T01:01:56.353Z,9.280037
2022-11-03T01:02:56.258Z,9.279994
2022-11-03T01:03:56.277Z,9.279919
2022-11-03T01:04:56.228Z,9.279997
2022-11-03T01:05:56.239Z,9.280096
2022-11-03T01:06:56.195Z,9.280127
2022-11-03T01:07:56.213Z,9.280005
2022-11-03T01:08:56.191Z,9.279897
2022-11-03T01:09:56.151Z,9.279926
2022-11-03T01:10:56.127Z,9.279918
2022-11-03T01:11:56.116Z,9.279967
2022-11-03T01:12:56.088Z,9.280021
2022-11-03T01:13:56.106Z,9.280032
2022-11-03T01:14:56.056Z,9.279971
2022-11-03T01:15:56.045Z,9.279949
2022-11-03T01:16:56.047Z,9.279937
2022-11-03T01:17:56.018Z,9.279915
2022-11-03T01:18:56.024Z,9.279996
2022-11-03T01:19:55.974Z,9.280025
2022-11-03T01:20:55.953Z,9.280081
2022-11-03T01:21:55.946Z,9.280117
2022-11-03T01:22:55.921Z,9.280053
2022-11-03T01:23:55.940Z,9.280000
2022-11-03T01:24:55.885Z,9.280022
2022-11-03T01:25:55.874Z,9.280004
2022-11-03T01:26:55.858Z,9.280006
2022-11-03T01:27:55.895Z,9.279983
2022-11-03T01:28:55.844Z,9.279992
2022-11-03T01:29:55.800Z,9.279988
2022-11-03T01:30:55.781Z,9.280022
2022-11-03T01:31:55.761Z,9.279982
2022-11-03T01:32:55.740Z,9.280016
2022-11-03T01:33:55.766Z,9.279983
2022-11-03T01:34:55.707Z,9.279921
2022-11-03T01:35:55.699Z,9.280011
2022-11-03T01:36:55.673Z,9.279988
2022-11-03T01:37:55.700Z,9.279885
2022-11-03T01:38:55.664Z,9.279951
2022-11-03T01:39:55.624Z,9.279982
2022-11-03T01:40:55.637Z,9.279922
2022-11-03T01:41:55.597Z,9.279895
2022-11-03T01:42:55.567Z,9.279906
2022-11-03T01:43:55.579Z,9.279904
2022-11-03T01:44:55.541Z,9.279943
2022-11-03T01:45:55.525Z,9.279963
2022-11-03T01:46:55.513Z,9.279993
2022-11-03T01:47:55.543Z,9.279985
2022-11-03T01:48:55.517Z,9.279899
2022-11-03T01:49:55.468Z,9.279893
2022-11-03T01:50:55.431Z,9.279892
2022-11-03T01:51:55.419Z,9.279906
2022-11-03T01:52:55.397Z,9.279845
2022-11-03T01:53:55.417Z,9.279802
2022-11-03T01:54:55.368Z,9.279870
2022-11-03T01:55:55.371Z,9.279814
2022-11-03T01:56:55.338Z,9.279895
2022-11-03T01:57:55.340Z,9.279850
2022-11-03T01:58:55.337Z,9.279873
2022-11-03T01:59:55.298Z,9.279766
2022-11-03T02:00:55.289Z,9.279814
2022-11-03T02:01:55.338Z,9.279861
2022-11-03T02:02:55.224Z,9.279881
2022-11-03T02:03:56.242Z,9.279757
2022-11-03T02:04:55.209Z,9.279844
2022-11-03T02:05:55.177Z,9.279857
2022-11-03T02:06:55.158Z,9.279887
2022-11-03T02:07:55.170Z,9.279860
2022-11-03T02:08:55.150Z,9.279910
2022-11-03T02:09:55.106Z,9.279897
2022-11-03T02:10:55.148Z,9.279858
2022-11-03T02:11:55.079Z,9.279912
2022-11-03T02:12:55.075Z,9.279897
2022-11-03T02:13:55.088Z,9.279843
2022-11-03T02:14:55.017Z,9.279815
2022-11-03T02:15:55.008Z,9.279787
2022-11-03T02:16:55.007Z,9.279849
2022-11-03T02:17:54.986Z,9.279858
2022-11-03T02:18:54.976Z,9.279762
2022-11-03T02:19:54.933Z,9.279510
2022-11-03T02:20:54.925Z,9.279618
2022-11-03T02:21:54.892Z,9.279663
2022-11-03T02:22:54.882Z,9.279823
2022-11-03T02:23:54.897Z,9.279797
2022-11-03T02:24:54.872Z,9.279793
2022-11-03T02:25:54.825Z,9.279913
2022-11-03T02:26:54.805Z,9.279823
2022-11-03T02:27:54.788Z,9.279782
2022-11-03T02:28:54.924Z,9.279797
2022-11-03T02:29:54.759Z,9.279832
2022-11-03T02:30:54.735Z,9.279825
2022-11-03T02:31:54.727Z,9.279935
2022-11-03T02:32:54.716Z,9.279847
2022-11-03T02:33:54.723Z,9.279713
2022-11-03T02:34:54.667Z,9.279908
2022-11-03T02:35:54.664Z,9.279942
2022-11-03T02:36:54.636Z,9.279550
2022-11-03T02:37:54.616Z,9.279500
2022-11-03T02:38:54.624Z,9.279724
2022-11-03T02:39:54.587Z,9.279696
2022-11-03T02:40:54.568Z,9.279972
2022-11-03T02:41:54.546Z,9.280024
2022-11-03T02:42:54.532Z,9.280072
2022-11-03T02:43:54.540Z,9.280135
2022-11-03T02:44:54.497Z,9.280032
2022-11-03T02:45:54.476Z,9.280038
2022-11-03T02:46:54.462Z,9.279976
2022-11-03T02:47:54.442Z,9.280055
2022-11-03T02:48:54.461Z,9.279985
2022-11-03T02:50:54.418Z,9.279902
2022-11-03T02:51:54.381Z,9.279885
2022-11-03T02:52:54.353Z,9.279918
2022-11-03T02:53:54.370Z,9.279963
2022-11-03T02:54:54.347Z,9.279943
2022-11-03T02:55:54.309Z,9.279906
2022-11-03T02:56:54.288Z,9.279875
2022-11-03T02:57:54.269Z,9.279952
2022-11-03T02:58:54.285Z,9.279991
2022-11-03T02:59:54.244Z,9.279898
2022-11-03T03:00:54.269Z,9.279886
2022-11-03T03:01:54.325Z,9.279936
2022-11-03T03:02:54.183Z,9.279935
2022-11-03T03:03:54.204Z,9.279756
2022-11-03T03:04:54.147Z,9.279922
2022-11-03T03:05:54.136Z,9.279971
2022-11-03T03:06:54.113Z,9.279979
2022-11-03T03:07:54.098Z,9.279914
2022-11-03T03:08:54.102Z,9.279976
2022-11-03T03:09:54.059Z,9.279928
2022-11-03T03:10:54.052Z,9.279940
2022-11-03T03:11:54.027Z,9.279857
2022-11-03T03:12:54.024Z,9.279931
2022-11-03T03:13:54.021Z,9.279913
2022-11-03T03:14:54.016Z,9.279896
2022-11-03T03:15:53.953Z,9.279810
2022-11-03T03:16:53.974Z,9.279799
2022-11-03T03:17:53.929Z,9.279816
2022-11-03T03:18:53.944Z,9.279868
2022-11-03T03:19:53.908Z,9.280038
2022-11-03T03:20:53.866Z,9.280018
2022-11-03T03:21:53.876Z,9.279942
2022-11-03T03:22:53.827Z,9.280004
2022-11-03T03:23:53.865Z,9.279958
2022-11-03T03:24:53.798Z,9.280040
2022-11-03T03:25:53.781Z,9.279996
2022-11-03T03:26:53.757Z,9.280002
2022-11-03T03:27:53.735Z,9.279975
2022-11-03T03:28:53.758Z,9.279995
2022-11-03T03:29:53.711Z,9.279988
2022-11-03T03:30:53.683Z,9.279959
2022-11-03T03:31:53.671Z,9.279907
2022-11-03T03:32:53.637Z,9.279945
2022-11-03T03:34:04.404Z,9.279972
2022-11-03T03:34:55.618Z,9.279941
2022-11-03T03:35:53.598Z,9.280032
2022-11-03T03:36:53.582Z,9.279945
2022-11-03T03:37:54.194Z,9.279789
2022-11-03T03:38:53.573Z,9.279823
2022-11-03T03:39:53.545Z,9.279897
2022-11-03T03:40:54.200Z,9.279912
2022-11-03T03:41:53.504Z,9.279903
2022-11-03T03:42:53.479Z,9.279901
2022-11-03T03:43:53.499Z,9.279837
2022-11-03T03:44:53.448Z,9.279904
2022-11-03T03:45:53.423Z,9.279984
2022-11-03T03:46:53.414Z,9.279878
2022-11-03T03:47:57.511Z,9.279789
2022-11-03T03:48:54.405Z,9.279940
2022-11-03T03:49:53.347Z,9.280051
2022-11-03T03:50:53.344Z,9.280042
2022-11-03T03:51:53.322Z,9.280148
2022-11-03T03:52:53.303Z,9.280015
2022-11-03T03:53:53.314Z,9.280115
2022-11-03T03:54:53.268Z,9.280147
2022-11-03T03:55:53.254Z,9.280078
2022-11-03T03:56:53.237Z,9.279842
2022-11-03T03:57:55.382Z,9.279944
2022-11-03T03:58:53.227Z,9.279991
2022-11-03T03:59:53.202Z,9.279986
2022-11-03T04:00:53.215Z,9.280023
2022-11-03T04:01:53.379Z,9.279978
2022-11-03T04:02:53.136Z,9.279894
2022-11-03T04:03:53.145Z,9.279893
2022-11-03T04:04:53.093Z,9.279922
2022-11-03T04:05:53.085Z,9.279897
2022-11-03T04:06:53.132Z,9.279930
2022-11-03T04:07:53.036Z,9.279801
2022-11-03T04:08:53.058Z,9.279879
2022-11-03T04:09:53.022Z,9.279917
2022-11-03T04:10:52.986Z,9.279925
2022-11-03T04:11:52.975Z,9.279923
2022-11-03T04:12:52.953Z,9.279889
2022-11-03T04:13:52.936Z,9.279844
2022-11-03T04:14:52.942Z,9.279870
2022-11-03T04:15:52.899Z,9.279920
2022-11-03T04:16:52.878Z,9.279917
2022-11-03T04:17:52.880Z,9.279923
2022-11-03T04:18:52.845Z,9.279924
2022-11-03T04:19:52.859Z,9.279872
2022-11-03T04:20:52.823Z,9.279873
2022-11-03T04:21:52.801Z,9.279889
2022-11-03T04:22:52.789Z,9.279913
2022-11-03T04:23:52.773Z,9.279933
2022-11-03T04:24:52.787Z,9.279852
2022-11-03T04:25:52.726Z,9.279755
2022-11-03T04:26:52.706Z,9.279843
2022-11-03T04:27:52.696Z,9.279906
2022-11-03T04:28:52.662Z,9.279900
2022-11-03T04:29:53.686Z,9.279887
2022-11-03T04:30:56.062Z,9.279829
2022-11-03T04:31:54.619Z,9.279946
2022-11-03T04:32:52.610Z,9.279926
2022-11-03T04:33:52.589Z,9.279892
2022-11-03T04:34:52.610Z,9.279887
2022-11-03T04:35:52.555Z,9.279906
2022-11-03T04:36:52.547Z,9.279959
2022-11-03T04:37:52.521Z,9.279896
2022-11-03T04:38:52.500Z,9.279925
2022-11-03T04:39:52.517Z,9.279832
2022-11-03T04:40:54.667Z,9.279903
2022-11-03T04:41:52.449Z,9.279965
2022-11-03T04:42:52.444Z,9.279893
2022-11-03T04:43:52.417Z,9.279810
2022-11-03T04:44:52.438Z,9.279869
2022-11-03T04:45:52.379Z,9.279854
2022-11-03T04:46:52.361Z,9.279830
2022-11-03T04:47:52.339Z,9.279845
2022-11-03T04:48:52.336Z,9.279882
2022-11-03T04:49:52.337Z,9.279892
2022-11-03T04:50:52.287Z,9.279867
2022-11-03T04:51:52.265Z,9.279880
2022-11-03T04:52:52.262Z,9.279896
2022-11-03T04:53:52.236Z,9.279895
2022-11-03T04:54:52.256Z,9.279891
2022-11-03T04:55:52.195Z,9.279944
2022-11-03T04:56:52.222Z,9.279889
2022-11-03T04:57:52.160Z,9.279881
2022-11-03T04:58:52.147Z,9.279955
2022-11-03T04:59:53.073Z,9.279894
2022-11-03T05:00:52.169Z,9.279821
2022-11-03T05:01:52.409Z,9.279898
2022-11-03T05:02:55.848Z,9.279875
2022-11-03T05:03:52.058Z,9.279844
2022-11-03T05:04:52.062Z,9.279904
2022-11-03T05:05:52.047Z,9.279933
2022-11-03T05:06:52.001Z,9.280097
2022-11-03T05:07:51.987Z,9.280066
2022-11-03T05:08:51.975Z,9.280013
2022-11-03T05:09:51.975Z,9.279944
2022-11-03T05:10:51.930Z,9.279906
2022-11-03T05:11:51.928Z,9.280044
2022-11-03T05:12:51.892Z,9.279789
2022-11-03T05:13:51.881Z,9.279819
2022-11-03T05:14:56.970Z,9.279853
2022-11-03T05:15:53.846Z,9.279835
2022-11-03T05:16:51.835Z,9.279979
2022-11-03T05:17:51.811Z,9.279883
2022-11-03T05:18:51.804Z,9.279982
2022-11-03T05:19:51.799Z,9.280017
2022-11-03T05:20:51.754Z,9.279975
2022-11-03T05:21:51.738Z,9.279941
2022-11-03T05:22:51.731Z,9.279919
2022-11-03T05:23:51.732Z,9.279911
2022-11-03T05:24:51.725Z,9.279889
2022-11-03T05:25:51.671Z,9.279806
2022-11-03T05:26:51.696Z,9.279953
2022-11-03T05:27:51.635Z,9.279986
2022-11-03T05:28:51.615Z,9.279915
2022-11-03T05:29:53.979Z,9.280007
2022-11-03T05:30:51.586Z,9.279898
2022-11-03T05:31:51.566Z,9.279935
2022-11-03T05:32:51.545Z,9.279833
2022-11-03T05:33:51.547Z,9.279871
2022-11-03T05:34:51.541Z,9.279909
2022-11-03T05:35:51.511Z,9.279933
2022-11-03T05:36:51.475Z,9.279870
2022-11-03T05:37:51.476Z,9.279908
2022-11-03T05:38:51.462Z,9.279906
2022-11-03T05:39:51.469Z,9.279906
2022-11-03T05:40:51.412Z,9.280031
2022-11-03T05:41:51.393Z,9.280019
2022-11-03T05:42:51.399Z,9.279944
2022-11-03T05:43:51.357Z,9.280066
2022-11-03T05:44:51.374Z,9.279989
2022-11-03T05:45:51.364Z,9.280145
2022-11-03T05:46:51.311Z,9.279947
2022-11-03T05:47:51.286Z,9.280037
2022-11-03T05:48:51.303Z,9.279966
2022-11-03T05:49:51.300Z,9.279881
2022-11-03T05:50:51.283Z,9.279883
2022-11-03T05:51:51.221Z,9.279801
2022-11-03T05:52:51.195Z,9.279791
2022-11-03T05:53:52.193Z,9.279799
2022-11-03T05:54:51.202Z,9.279922
2022-11-03T05:55:51.158Z,9.279882
2022-11-03T05:56:51.136Z,9.280005
2022-11-03T05:57:51.116Z,9.279713
2022-11-03T05:58:51.096Z,9.279815
2022-11-03T05:59:51.138Z,9.279920
2022-11-03T06:00:51.072Z,9.279983
2022-11-03T06:01:51.161Z,9.280002
2022-11-03T06:02:51.099Z,9.280082
2022-11-03T06:03:51.042Z,9.280092
2022-11-03T06:04:51.022Z,9.280002
2022-11-03T06:05:50.989Z,9.279893
2022-11-03T06:06:50.968Z,9.279983
2022-11-03T06:07:50.984Z,9.280043
2022-11-03T06:08:50.934Z,9.279920
2022-11-03T06:09:50.945Z,9.279802
2022-11-03T06:10:50.889Z,9.279820
2022-11-03T06:11:50.881Z,9.279785
2022-11-03T06:12:50.858Z,9.279862
2022-11-03T06:13:50.839Z,9.280021
2022-11-03T06:14:50.849Z,9.279924
2022-11-03T06:15:50.803Z,9.279947
2022-11-03T06:16:50.794Z,9.279926
2022-11-03T06:17:50.774Z,9.280045
2022-11-03T06:18:50.769Z,9.279958
2022-11-03T06:19:50.836Z,9.279958
2022-11-03T06:20:50.724Z,9.279679
2022-11-03T06:21:50.691Z,9.279584
2022-11-03T06:22:50.694Z,9.279712
2022-11-03T06:23:50.656Z,9.279693
2022-11-03T06:24:50.679Z,9.279875
2022-11-03T06:25:50.619Z,9.280009
2022-11-03T06:26:50.620Z,9.280037
2022-11-03T06:27:50.587Z,9.280028
2022-11-03T06:28:50.577Z,9.279970
2022-11-03T06:29:50.592Z,9.279929
2022-11-03T06:30:51.416Z,9.279862
2022-11-03T06:31:50.538Z,9.279826
2022-11-03T06:32:50.507Z,9.279872
2022-11-03T06:33:50.490Z,9.279884
2022-11-03T06:34:50.531Z,9.279795
2022-11-03T06:35:50.467Z,9.279821
2022-11-03T06:36:50.443Z,9.279836
2022-11-03T06:37:50.431Z,9.279877
2022-11-03T06:38:50.404Z,9.279900
2022-11-03T06:39:50.403Z,9.279861
2022-11-03T06:40:50.360Z,9.280026
2022-11-03T06:41:50.345Z,9.279984
2022-11-03T06:42:50.344Z,9.279867
2022-11-03T06:43:50.335Z,9.279836
2022-11-03T06:44:50.327Z,9.279794
2022-11-03T06:45:50.274Z,9.279728
2022-11-03T06:46:50.257Z,9.279851
2022-11-03T06:47:50.242Z,9.279922
2022-11-03T06:48:50.258Z,9.279910
2022-11-03T06:49:50.240Z,9.280002
2022-11-03T06:50:50.204Z,9.279852
2022-11-03T06:51:50.178Z,9.279853
2022-11-03T06:52:50.220Z,9.279902
2022-11-03T06:53:50.135Z,9.279977
2022-11-03T06:54:50.141Z,9.279921
2022-11-03T06:55:50.115Z,9.279847
2022-11-03T06:56:50.076Z,9.279931
2022-11-03T06:57:50.079Z,9.279893
2022-11-03T06:58:50.052Z,9.279912
2022-11-03T06:59:57.105Z,9.279924
2022-11-03T07:00:52.261Z,9.279956
2022-11-03T07:01:51.105Z,9.279936
2022-11-03T07:02:49.972Z,9.279977
2022-11-03T07:03:49.963Z,9.279933
2022-11-03T07:04:49.986Z,9.279908
2022-11-03T07:05:49.936Z,9.279875
2022-11-03T07:06:53.251Z,9.279815
2022-11-03T07:07:50.893Z,9.279829
2022-11-03T07:08:49.878Z,9.279921
2022-11-03T07:09:49.913Z,9.279910
2022-11-03T07:10:49.844Z,9.279859
2022-11-03T07:11:49.824Z,9.279862
2022-11-03T07:12:49.805Z,9.279925
2022-11-03T07:13:49.800Z,9.279867
2022-11-03T07:14:49.773Z,9.279837
2022-11-03T07:15:49.787Z,9.279867
2022-11-03T07:16:49.763Z,9.279887
2022-11-03T07:17:49.721Z,9.279883
2022-11-03T07:18:49.708Z,9.279889
2022-11-03T07:19:49.695Z,9.279783
2022-11-03T07:20:49.702Z,9.279852
2022-11-03T07:21:49.666Z,9.279820
2022-11-03T07:22:49.646Z,9.279768
2022-11-03T07:23:49.645Z,9.279897
2022-11-03T07:24:49.656Z,9.280015
2022-11-03T07:25:49.591Z,9.280095
2022-11-03T07:26:49.585Z,9.280063
2022-11-03T07:27:49.554Z,9.279936
2022-11-03T07:28:49.558Z,9.279858
2022-11-03T07:29:49.551Z,9.279822
2022-11-03T07:30:49.501Z,9.279880
2022-11-03T07:31:49.486Z,9.279888
2022-11-03T07:32:49.477Z,9.279882
2022-11-03T07:33:49.453Z,9.279835
2022-11-03T07:34:49.460Z,9.279900
2022-11-03T07:36:17.070Z,9.279881
2022-11-03T07:36:55.736Z,9.279911
2022-11-03T07:37:50.413Z,9.279938
2022-11-03T07:38:49.368Z,9.279878
2022-11-03T07:39:49.402Z,9.279943
2022-11-03T07:40:49.340Z,9.279945
2022-11-03T07:41:49.313Z,9.279850
2022-11-03T07:42:49.292Z,9.279900
2022-11-03T07:43:49.286Z,9.279936
2022-11-03T07:44:49.393Z,9.279798
2022-11-03T07:45:49.284Z,9.279786
2022-11-03T07:46:49.255Z,9.279957
2022-11-03T07:47:49.216Z,9.279904
2022-11-03T07:48:49.185Z,9.279906
2022-11-03T07:49:49.209Z,9.279867
2022-11-03T07:50:49.150Z,9.279817
2022-11-03T07:51:49.136Z,9.279831
2022-11-03T07:52:49.117Z,9.279867
2022-11-03T07:53:49.113Z,9.279858
2022-11-03T07:54:49.106Z,9.279889
2022-11-03T07:55:49.133Z,9.279856
2022-11-03T07:56:49.057Z,9.279828
2022-11-03T07:57:49.066Z,9.279849
2022-11-03T07:58:49.024Z,9.279886
2022-11-03T07:59:49.042Z,9.279849
2022-11-03T08:00:48.983Z,9.279934
2022-11-03T08:01:49.134Z,9.279819
2022-11-03T08:02:49.029Z,9.279786
2022-11-03T08:03:48.941Z,9.279836
2022-11-03T08:04:48.937Z,9.279801
2022-11-03T08:05:48.910Z,9.279835
2022-11-03T08:06:48.877Z,9.279933
2022-11-03T08:07:48.891Z,9.279991
2022-11-03T08:08:48.832Z,9.279957
2022-11-03T08:09:48.842Z,9.280004
2022-11-03T08:10:48.804Z,9.279997
2022-11-03T08:11:48.771Z,9.279971
2022-11-03T08:12:48.751Z,9.279876
2022-11-03T08:13:48.781Z,9.279959
2022-11-03T08:14:48.743Z,9.279815
2022-11-03T08:15:48.787Z,9.279877
2022-11-03T08:16:48.668Z,9.279758
2022-11-03T08:17:52.089Z,9.279709
2022-11-03T08:18:50.627Z,9.279640
2022-11-03T08:19:48.639Z,9.279887
2022-11-03T08:20:48.605Z,9.280087
2022-11-03T08:21:48.561Z,9.280086
2022-11-03T08:23:05.006Z,9.280037
2022-11-03T08:23:50.561Z,9.279947
2022-11-03T08:24:48.524Z,9.279938
2022-11-03T08:25:48.498Z,9.279926
2022-11-03T08:26:48.445Z,9.279924
2022-11-03T08:27:48.435Z,9.279941
2022-11-03T08:28:48.405Z,9.280091
2022-11-03T08:29:48.405Z,9.279857
2022-11-03T08:30:48.371Z,9.279672
2022-11-03T08:31:48.342Z,9.279640
2022-11-03T08:32:48.340Z,9.279868
2022-11-03T08:33:48.323Z,9.279977
2022-11-03T08:34:49.180Z,9.279923
2022-11-03T08:35:48.293Z,9.279877
2022-11-03T08:36:48.250Z,9.279852
2022-11-03T08:37:48.221Z,9.279887
2022-11-03T08:38:48.202Z,9.279979
2022-11-03T08:39:48.185Z,9.280046
2022-11-03T08:40:52.684Z,9.280036
2022-11-03T08:41:50.140Z,9.280030
2022-11-03T08:42:48.131Z,9.279981
2022-11-03T08:43:48.110Z,9.280029
2022-11-03T08:44:48.085Z,9.280045
2022-11-03T08:45:48.101Z,9.280129
2022-11-03T08:46:48.055Z,9.279959
2022-11-03T08:47:48.026Z,9.279989
2022-11-03T08:48:48.016Z,9.279958
2022-11-03T08:49:47.999Z,9.279891
2022-11-03T08:50:48.000Z,9.279924
2022-11-03T08:51:47.958Z,9.279894
2022-11-03T08:52:47.942Z,9.280002
2022-11-03T08:53:47.928Z,9.280109
2022-11-03T08:54:47.977Z,9.280187
2022-11-03T08:55:47.904Z,9.280087
2022-11-03T08:56:47.864Z,9.279982
2022-11-03T08:57:47.840Z,9.280164
2022-11-03T08:58:47.822Z,9.280130
2022-11-03T08:59:47.801Z,9.280040
2022-11-03T09:00:48.071Z,9.279995
2022-11-03T09:01:47.841Z,9.280076
2022-11-03T09:02:47.871Z,9.280046
2022-11-03T09:03:47.851Z,9.279972
2022-11-03T09:04:47.709Z,9.280113
2022-11-03T09:05:49.917Z,9.280217
2022-11-03T09:06:47.688Z,9.280128
2022-11-03T09:10:49.619Z,9.280009
2022-11-03T09:11:47.566Z,9.280010
2022-11-03T09:12:47.541Z,9.279928
2022-11-03T09:13:47.536Z,9.280193
2022-11-03T09:14:47.503Z,9.280413
2022-11-03T09:15:47.499Z,9.280137
2022-11-03T09:16:48.471Z,9.279821
2022-11-03T09:17:47.437Z,9.280016
2022-11-03T09:18:47.417Z,9.280019
2022-11-03T09:19:47.389Z,9.279997
2022-11-03T09:20:47.389Z,9.280030
2022-11-03T09:21:47.347Z,9.279918
2022-11-03T09:22:47.330Z,9.280338
2022-11-03T09:23:47.298Z,9.280069
2022-11-03T09:24:47.268Z,9.279962
2022-11-03T09:25:47.313Z,9.280065
2022-11-03T09:26:47.222Z,9.280111
2022-11-03T09:27:47.204Z,9.279952
2022-11-03T09:28:47.177Z,9.280025
2022-11-03T09:30:11.561Z,9.280061
2022-11-03T09:30:49.161Z,9.280029
2022-11-03T09:31:47.143Z,9.279978
2022-11-03T09:32:47.092Z,9.280050
2022-11-03T09:33:47.074Z,9.280021
2022-11-03T09:34:47.055Z,9.280073
2022-11-03T09:35:47.059Z,9.280040
2022-11-03T09:36:52.141Z,9.279914
2022-11-03T09:37:48.986Z,9.279819
2022-11-03T09:38:46.965Z,9.279745
2022-11-03T09:39:46.938Z,9.279883
2022-11-03T09:41:58.144Z,9.279789
2022-11-03T09:42:48.878Z,9.279852
2022-11-03T09:43:46.844Z,9.279850
2022-11-03T09:44:46.824Z,9.279849
2022-11-03T09:45:46.846Z,9.279907
2022-11-03T09:46:46.777Z,9.279904
2022-11-03T09:47:46.756Z,9.279930
2022-11-03T09:48:46.740Z,9.279971
2022-11-03T09:49:46.729Z,9.279901
2022-11-03T09:50:46.716Z,9.279992
2022-11-03T09:51:46.666Z,9.279968
2022-11-03T09:52:51.334Z,9.279991
2022-11-03T09:53:48.622Z,9.279955
2022-11-03T09:54:46.598Z,9.279968
2022-11-03T09:55:46.600Z,9.279947
2022-11-03T09:56:46.558Z,9.279952
2022-11-03T09:57:46.538Z,9.279959
2022-11-03T09:58:49.887Z,9.279972
2022-11-03T09:59:48.496Z,9.279955
2022-11-03T10:00:46.550Z,9.279977
2022-11-03T10:01:46.517Z,9.279978
2022-11-03T10:02:46.416Z,9.279987
2022-11-03T10:03:46.402Z,9.279898
2022-11-03T10:04:46.374Z,9.279966
2022-11-03T10:05:46.384Z,9.279972
2022-11-03T10:06:46.326Z,9.279799
2022-11-03T10:07:46.338Z,9.279819
2022-11-03T10:08:46.289Z,9.280000
2022-11-03T10:09:46.266Z,9.280006
2022-11-03T10:10:46.265Z,9.279833
2022-11-03T10:11:46.225Z,9.279840
2022-11-03T10:12:46.193Z,9.279931
2022-11-03T10:13:46.172Z,9.279933
2022-11-03T10:14:46.150Z,9.279889
2022-11-03T10:15:46.154Z,9.279910
2022-11-03T10:16:50.765Z,9.279843
2022-11-03T10:17:48.082Z,9.279847
2022-11-03T10:18:46.090Z,9.279946
2022-11-03T10:19:46.036Z,9.279942
2022-11-03T10:20:46.039Z,9.279875
2022-11-03T10:21:45.990Z,9.279888
2022-11-03T10:22:45.980Z,9.279815
2022-11-03T10:23:45.945Z,9.279757
2022-11-03T10:24:45.927Z,9.279913
2022-11-03T10:25:45.926Z,9.279901
2022-11-03T10:26:45.877Z,9.279852
2022-11-03T10:27:45.856Z,9.279776
2022-11-03T10:28:45.839Z,9.279783
2022-11-03T10:29:50.802Z,9.279817
2022-11-03T10:31:10.160Z,9.279720
2022-11-03T10:31:47.996Z,9.279776
2022-11-03T10:32:45.797Z,9.279842
2022-11-03T10:33:45.781Z,9.279850
2022-11-03T10:34:45.847Z,9.279902
2022-11-03T10:35:45.750Z,9.279814
2022-11-03T10:36:50.427Z,9.279893
2022-11-03T10:37:47.652Z,9.279853
2022-11-03T10:38:45.728Z,9.279892
2022-11-03T10:39:45.791Z,9.279971
2022-11-03T10:40:48.100Z,9.279919
2022-11-03T10:41:46.553Z,9.279943
2022-11-03T10:42:45.594Z,9.280064
2022-11-03T10:43:46.511Z,9.279974
2022-11-03T10:44:45.532Z,9.279834
2022-11-03T10:45:45.492Z,9.279773
2022-11-03T10:46:50.762Z,9.279843
2022-11-03T10:47:47.427Z,9.279733
2022-11-03T10:48:45.399Z,9.279838
2022-11-03T10:49:45.375Z,9.279853
2022-11-03T10:50:45.389Z,9.279889
2022-11-03T10:51:45.343Z,9.279862
2022-11-03T10:52:45.317Z,9.279840
2022-11-03T10:53:45.288Z,9.279821
2022-11-03T10:54:45.277Z,9.279871
2022-11-03T10:55:45.279Z,9.279833
2022-11-03T10:56:45.240Z,9.279888
2022-11-03T10:57:48.088Z,9.279796
2022-11-03T10:58:46.243Z,9.279910
2022-11-03T10:59:45.161Z,9.279928
2022-11-03T11:00:45.204Z,9.279923
2022-11-03T11:01:45.279Z,9.279865
2022-11-03T11:02:45.096Z,9.279962
2022-11-03T11:03:45.069Z,9.279968
2022-11-03T11:04:45.128Z,9.279902
2022-11-03T11:05:45.053Z,9.279760
2022-11-03T11:06:45.004Z,9.279915
2022-11-03T11:07:45.024Z,9.279877
2022-11-03T11:08:44.960Z,9.279881
2022-11-03T11:09:44.941Z,9.279903
2022-11-03T11:10:44.945Z,9.280003
2022-11-03T11:11:44.915Z,9.279968
2022-11-03T11:12:44.883Z,9.279865
2022-11-03T11:13:44.854Z,9.279660
2022-11-03T11:14:44.836Z,9.279861
2022-11-03T11:15:44.851Z,9.279847
2022-11-03T11:16:44.801Z,9.279963
2022-11-03T11:17:44.776Z,9.279971
2022-11-03T11:18:44.756Z,9.280005
2022-11-03T11:19:44.733Z,9.279970
2022-11-03T11:20:44.741Z,9.279996
2022-11-03T11:21:44.688Z,9.280052
2022-11-03T11:22:44.679Z,9.280027
2022-11-03T11:23:44.652Z,9.280005
2022-11-03T11:24:44.632Z,9.279902
2022-11-03T11:25:44.636Z,9.279961
2022-11-03T11:26:44.586Z,9.279987
2022-11-03T11:27:44.567Z,9.279967
2022-11-03T11:28:44.544Z,9.280073
2022-11-03T11:29:44.544Z,9.279993
2022-11-03T11:30:44.526Z,9.279996
2022-11-03T11:31:44.483Z,9.279982
2022-11-03T11:32:44.457Z,9.280016
2022-11-03T11:33:44.437Z,9.280003
2022-11-03T11:34:44.415Z,9.279940
2022-11-03T11:35:44.423Z,9.279992
2022-11-03T11:36:44.378Z,9.279985
2022-11-03T11:37:44.357Z,9.279913
2022-11-03T11:38:44.335Z,9.280053
2022-11-03T11:39:44.355Z,9.279850
2022-11-03T11:40:44.318Z,9.279873
2022-11-03T11:41:44.434Z,9.279994
2022-11-03T11:42:44.242Z,9.279844
2022-11-03T11:43:44.298Z,9.279854
2022-11-03T11:44:44.200Z,9.279946
2022-11-03T11:45:44.213Z,9.279929
2022-11-03T11:46:44.159Z,9.279985
2022-11-03T11:47:44.141Z,9.279970
2022-11-03T11:48:44.116Z,9.279938
2022-11-03T11:49:44.113Z,9.280070